WXM80 ListenWXM80 Stop

You find our weather info also at:

UK Metoffice

WeatherCloud

Weather Underground

Northeastern Weather Network

AWEKAS

Citizen Weather Observer Program (CWOP)

HAMweather, WeatherForYou, PWS Weather


Weather Underground History page Text

Daily Summary for May 10, 2017 Units:  Metric    English   Both
« Previous Day
Next Day »
Daily Weekly Monthly Yearly Custom
  High: Low: Average:
Temperature: 19.3 °C 8.1 °C 12.8 °C
Dew Point: 7.3 °C 3.4 °C 5.5 °C
Humidity: 90 % 39 % 63 %
Wind Speed: 7.4 km/h 0 km/h 1.8 km/h
Wind Gust: 13 km/h - -
Wind:- - East
Pressure: 1016.5 hPa 1014.4 hPa -
Precipitation: 0 mm    
Historical Graphs
 
 
Tabular Data for May 10, 2017
Time Temperature Dew Point Pressure Wind Wind Speed Wind Gust Humidity Rainfall Rate (Hourly)
00:04 8.9 °C 5.5 °C 1014.4 hPa Calm     79 % 0 mm
00:09 8.9 °C 5.6 °C 1014.8 hPa Calm     80 % 0 mm
00:14 8.8 °C 5.5 °C 1014.8 hPa Calm     80 % 0 mm
00:19 8.7 °C 5.4 °C 1014.8 hPa Calm     80 % 0 mm
00:24 8.6 °C 5.3 °C 1014.8 hPa Calm     80 % 0 mm
00:29 8.6 °C 5.3 °C 1014.8 hPa Calm     80 % 0 mm
00:34 8.6 °C 5.5 °C 1015.1 hPa Calm     81 % 0 mm
00:39 8.5 °C 5.6 °C 1014.8 hPa Calm     82 % 0 mm
00:44 8.4 °C 5.6 °C 1014.8 hPa Calm     82 % 0 mm
00:49 8.4 °C 5.7 °C 1014.8 hPa Calm     83 % 0 mm
00:52 8.4 °C 5.7 °C 1014.8 hPa Calm     83 % 0 mm
00:57 8.4 °C 5.8 °C 1014.8 hPa Calm     84 % 0 mm
01:02 8.4 °C 5.8 °C 1014.4 hPa Calm     84 % 0 mm
01:07 8.3 °C 5.9 °C 1014.4 hPa Calm     85 % 0 mm
01:12 8.3 °C 5.9 °C 1014.4 hPa Calm     85 % 0 mm
01:17 8.3 °C 5.9 °C 1014.4 hPa Calm     85 % 0 mm
01:22 8.2 °C 5.8 °C 1014.4 hPa Calm     85 % 0 mm
01:28 8.2 °C 5.8 °C 1014.4 hPa Calm     85 % 0 mm
01:33 8.2 °C 5.9 °C 1014.4 hPa Calm     86 % 0 mm
01:38 8.2 °C 5.9 °C 1014.4 hPa Calm     86 % 0 mm
01:43 8.2 °C 6.1 °C 1014.4 hPa ENE 0.2 km/h 1.9 km/h 87 % 0 mm
01:48 8.1 °C 6.2 °C 1014.4 hPa Calm     88 % 0 mm
01:53 8.1 °C 6.1 °C 1014.4 hPa Calm     87 % 0 mm
01:58 8.1 °C 6.2 °C 1014.8 hPa Calm     88 % 0 mm
02:03 8.1 °C 6.3 °C 1014.8 hPa Calm     89 % 0 mm
02:08 8.1 °C 6.3 °C 1014.8 hPa Calm     89 % 0 mm
02:13 8.1 °C 6.3 °C 1014.8 hPa Calm     89 % 0 mm
02:18 8.1 °C 6.4 °C 1014.4 hPa Calm     89 % 0 mm
02:23 8.1 °C 6.4 °C 1014.4 hPa Calm     89 % 0 mm
02:28 8.1 °C 6.4 °C 1014.4 hPa Calm     89 % 0 mm
02:33 8.1 °C 6.3 °C 1014.8 hPa Calm     89 % 0 mm
02:38 8.1 °C 6.4 °C 1014.8 hPa Calm     89 % 0 mm
02:43 8.1 °C 6.4 °C 1014.4 hPa Calm     89 % 0 mm
02:48 8.1 °C 6.4 °C 1014.8 hPa Calm     89 % 0 mm
02:53 8.1 °C 6.4 °C 1014.4 hPa Calm     89 % 0 mm
02:59 8.2 °C 6.6 °C 1014.4 hPa Calm     90 % 0 mm
03:04 8.2 °C 6.6 °C 1014.4 hPa Calm     90 % 0 mm
03:09 8.2 °C 6.6 °C 1014.4 hPa Calm     90 % 0 mm
03:14 8.2 °C 6.6 °C 1014.4 hPa Calm     90 % 0 mm
03:19 8.2 °C 6.6 °C 1014.4 hPa Calm     90 % 0 mm
03:24 8.2 °C 6.6 °C 1014.4 hPa Calm     90 % 0 mm
03:29 8.2 °C 6.6 °C 1014.4 hPa Calm     90 % 0 mm
03:34 8.2 °C 6.4 °C 1014.4 hPa Calm     89 % 0 mm
03:35 8.2 °C 6.4 °C 1014.4 hPa Calm     89 % 0 mm
03:40 8.2 °C 6.4 °C 1014.4 hPa Calm   1.6 km/h 89 % 0 mm
03:45 8.2 °C 6.3 °C 1014.4 hPa Calm     88 % 0 mm
03:47 8.2 °C 6.3 °C 1014.4 hPa Calm     88 % 0 mm
03:52 8.2 °C 6.3 °C 1014.4 hPa Calm     88 % 0 mm
03:57 8.2 °C 6.1 °C 1014.8 hPa ENE 1 km/h 3.2 km/h 87 % 0 mm
04:02 8.1 °C 5.7 °C 1014.8 hPa NNE 2.1 km/h 5.6 km/h 85 % 0 mm
04:07 8.2 °C 5.8 °C 1014.8 hPa NNE 0.6 km/h 1.6 km/h 85 % 0 mm
04:12 8.2 °C 5.8 °C 1014.4 hPa NNE 4.3 km/h 5.6 km/h 85 % 0 mm
04:14 8.2 °C 5.7 °C 1014.8 hPa NNE 3.2 km/h 5.6 km/h 84 % 0 mm
04:19 8.3 °C 5.6 °C 1014.8 hPa NNE 1.4 km/h 5.6 km/h 83 % 0 mm
04:24 8.3 °C 5.4 °C 1014.8 hPa NNE 3.9 km/h 5.6 km/h 82 % 0 mm
04:29 8.4 °C 5.1 °C 1014.8 hPa NNE 5.8 km/h 9.3 km/h 80 % 0 mm
04:34 8.5 °C 5.1 °C 1014.8 hPa NNE 4.8 km/h 5.6 km/h 79 % 0 mm
04:39 8.6 °C 5.1 °C 1014.8 hPa NNE 1.4 km/h 5.6 km/h 79 % 0 mm
04:44 8.7 °C 5.1 °C 1014.4 hPa North 2.1 km/h 5.6 km/h 78 % 0 mm
04:49 8.7 °C 4.9 °C 1014.4 hPa NNE 3.9 km/h 7.4 km/h 77 % 0 mm
04:54 8.7 °C 4.9 °C 1014.4 hPa NNE 4 km/h 6.4 km/h 77 % 0 mm
04:59 8.8 °C 4.8 °C 1014.4 hPa North 2.3 km/h 5.6 km/h 76 % 0 mm
05:04 8.8 °C 4.8 °C 1014.4 hPa Calm     76 % 0 mm
05:09 8.8 °C 4.8 °C 1014.4 hPa NNE 3.1 km/h 5.6 km/h 76 % 0 mm
05:10 8.8 °C 4.8 °C 1014.4 hPa NNE 3.7 km/h 5.6 km/h 76 % 0 mm
05:15 8.8 °C 4.8 °C 1014.4 hPa NNE 0.6 km/h 5.6 km/h 76 % 0 mm
05:20 8.8 °C 4.6 °C 1014.4 hPa NNE 0.3 km/h 3.7 km/h 75 % 0 mm
05:25 8.8 °C 4.6 °C 1014.8 hPa NNE 0.6 km/h 3.7 km/h 75 % 0 mm
05:30 8.8 °C 4.6 °C 1014.8 hPa NNE 0.5 km/h 1.9 km/h 75 % 0 mm
05:35 8.7 °C 4.7 °C 1014.8 hPa NNE 1.4 km/h 3.7 km/h 76 % 0 mm
05:40 8.7 °C 4.7 °C 1014.8 hPa NNE 4.8 km/h 9.3 km/h 76 % 0 mm
05:45 8.7 °C 4.7 °C 1014.8 hPa NNE 3.1 km/h 5.6 km/h 76 % 0 mm
05:50 8.7 °C 4.7 °C 1014.8 hPa NNE 1.1 km/h 3.7 km/h 76 % 0 mm
05:55 8.7 °C 4.7 °C 1014.8 hPa NE 1.4 km/h 3.7 km/h 76 % 0 mm
06:00 8.7 °C 4.5 °C 1015.1 hPa NNE 2.6 km/h 5.6 km/h 75 % 0 mm
06:05 8.6 °C 4.2 °C 1015.1 hPa NNE 2.1 km/h 5.6 km/h 74 % 0 mm
06:11 8.6 °C 4.2 °C 1015.1 hPa Calm     74 % 0 mm
06:16 8.6 °C 4.2 °C 1015.1 hPa North 1.1 km/h 7.4 km/h 74 % 0 mm
06:21 8.6 °C 4.2 °C 1015.1 hPa NNE 1.6 km/h 4.8 km/h 74 % 0 mm
06:26 8.6 °C 4.2 °C 1015.5 hPa NE 1.6 km/h 6.4 km/h 74 % 0 mm
06:31 8.7 °C 4.3 °C 1015.5 hPa ENE 3.2 km/h 6.4 km/h 74 % 0 mm
06:36 8.8 °C 4.7 °C 1015.5 hPa ENE 1.6 km/h 6.4 km/h 75 % 0 mm
06:41 9 °C 4.8 °C 1015.5 hPa ENE 1.6 km/h 8 km/h 75 % 0 mm
06:46 9.2 °C 4.8 °C 1015.5 hPa Calm   6.4 km/h 74 % 0 mm
06:51 9.3 °C 4.9 °C 1015.5 hPa ENE 1.6 km/h 8 km/h 74 % 0 mm
06:56 9.5 °C 5.3 °C 1015.5 hPa Calm   4.8 km/h 75 % 0 mm
07:00 9.8 °C 5.2 °C 1015.5 hPa North 1.8 km/h 5.6 km/h 73 % 0 mm
07:06 10.1 °C 5.7 °C 1015.5 hPa NE 1.6 km/h 6.4 km/h 74 % 0 mm
07:11 10.4 °C 4.6 °C 1015.8 hPa ENE 3.2 km/h 8 km/h 67 % 0 mm
07:16 10.8 °C 4.4 °C 1015.8 hPa ENE 3.2 km/h 9.7 km/h 65 % 0 mm
07:21 11 °C 5.3 °C 1015.5 hPa NNE 2.7 km/h 5.6 km/h 68 % 0 mm
07:26 11.1 °C 5.2 °C 1015.8 hPa NE 3.2 km/h 8 km/h 67 % 0 mm
07:31 11.2 °C 5.1 °C 1015.5 hPa Calm   4.8 km/h 66 % 0 mm
07:36 11.3 °C 5.2 °C 1015.8 hPa NE 1.6 km/h 8 km/h 66 % 0 mm
07:41 11.3 °C 5 °C 1015.8 hPa NE 3.2 km/h 9.7 km/h 65 % 0 mm
07:46 11.4 °C 5.3 °C 1015.8 hPa NNE 1.6 km/h 8 km/h 66 % 0 mm
07:51 11.4 °C 4.8 °C 1015.8 hPa NNE 1.6 km/h 6.4 km/h 64 % 0 mm
07:56 11.4 °C 5.5 °C 1015.8 hPa NE 1.6 km/h 4.8 km/h 67 % 0 mm
08:01 11.6 °C 5.4 °C 1015.8 hPa NNE 6.8 km/h 9.3 km/h 66 % 0 mm
08:06 11.6 °C 5.2 °C 1015.8 hPa North 2.3 km/h 5.6 km/h 65 % 0 mm
08:11 11.6 °C 5.2 °C 1015.8 hPa NNE 3.7 km/h 5.6 km/h 65 % 0 mm
08:16 11.4 °C 4.9 °C 1015.8 hPa NE 3.9 km/h 5.6 km/h 64 % 0 mm
08:21 11.5 °C 5.2 °C 1015.8 hPa NE 3.5 km/h 5.6 km/h 65 % 0 mm
08:26 11.6 °C 5.4 °C 1015.8 hPa North 7.1 km/h 8 km/h 66 % 0 mm
08:31 11.6 °C 4.5 °C 1016.1 hPa NNE 2.6 km/h 7.4 km/h 62 % 0 mm
08:36 11.6 °C 5 °C 1016.1 hPa ENE 1.6 km/h 6.4 km/h 64 % 0 mm
08:41 11.6 °C 5 °C 1016.1 hPa NNE 5.5 km/h 9.3 km/h 64 % 0 mm
08:46 11.6 °C 5.2 °C 1016.1 hPa NNE 4.5 km/h 8 km/h 65 % 0 mm
08:51 11.7 °C 4.8 °C 1016.1 hPa NE 5.8 km/h 11.1 km/h 63 % 0 mm
08:56 11.8 °C 4.7 °C 1016.1 hPa ENE 7.4 km/h 12.9 km/h 62 % 0 mm
09:01 11.7 °C 4.4 °C 1016.1 hPa East 5 km/h 9.7 km/h 61 % 0 mm
09:06 11.7 °C 4.8 °C 1016.1 hPa ENE 3.2 km/h 8 km/h 63 % 0 mm
09:11 11.8 °C 5.4 °C 1016.1 hPa ENE 1.1 km/h 5.6 km/h 65 % 0 mm
09:16 11.9 °C 5.6 °C 1016.1 hPa NE 1.9 km/h 5.6 km/h 65 % 0 mm
09:21 12 °C 5.2 °C 1016.1 hPa North 5.3 km/h 9.3 km/h 63 % 0 mm
09:26 12.1 °C 4.8 °C 1016.1 hPa ENE 2.1 km/h 5.6 km/h 61 % 0 mm
09:31 12.1 °C 4.3 °C 1016.1 hPa ENE 1.6 km/h 5.6 km/h 59 % 0 mm
09:36 12.1 °C 5 °C 1016.1 hPa North 3.2 km/h 6.4 km/h 62 % 0 mm
09:41 12.2 °C 5.4 °C 1016.1 hPa North 5.8 km/h 9.3 km/h 63 % 0 mm
09:46 12.4 °C 5.8 °C 1016.1 hPa ENE 3.7 km/h 5.6 km/h 64 % 0 mm
09:51 12.7 °C 5.8 °C 1016.1 hPa ENE 2.9 km/h 5.6 km/h 63 % 0 mm
09:56 13.1 °C 5.7 °C 1016.1 hPa North 3.4 km/h 6.4 km/h 61 % 0 mm
10:01 13.5 °C 5.9 °C 1016.1 hPa ENE 2.1 km/h 4.8 km/h 60 % 0 mm
10:06 13.7 °C 4.8 °C 1016.1 hPa ENE 3.9 km/h 5.6 km/h 55 % 0 mm
10:11 13.8 °C 5.2 °C 1016.1 hPa ENE 3.9 km/h 8 km/h 56 % 0 mm
10:16 14.1 °C 5.2 °C 1015.8 hPa ENE 5.1 km/h 8 km/h 55 % 0 mm
10:21 14.3 °C 5.6 °C 1015.8 hPa NNE 0.3 km/h 3.7 km/h 56 % 0 mm
10:26 14.3 °C 4.1 °C 1015.8 hPa ENE 4.3 km/h 7.4 km/h 50 % 0 mm
10:31 14.5 °C 5.6 °C 1015.8 hPa ENE 3.2 km/h 8 km/h 55 % 0 mm
10:36 14.7 °C 6.3 °C 1015.8 hPa ENE 0.6 km/h 5.6 km/h 57 % 0 mm
10:41 15 °C 5.8 °C 1015.8 hPa NE 0.3 km/h 1.9 km/h 54 % 0 mm
10:46 15.3 °C 4.9 °C 1015.8 hPa East 0.6 km/h 1.9 km/h 50 % 0 mm
10:51 15.3 °C 4.6 °C 1015.8 hPa NE 2.7 km/h 5.6 km/h 49 % 0 mm
10:56 15.4 °C 6.2 °C 1015.8 hPa Calm   1.9 km/h 54 % 0 mm
11:01 15.8 °C 5.9 °C 1015.8 hPa NNE 5 km/h 7.4 km/h 52 % 0 mm
11:06 16.3 °C 5.9 °C 1015.5 hPa WSW 3.1 km/h 7.4 km/h 50 % 0 mm
11:12 16.8 °C 6.6 °C 1015.5 hPa North 3.1 km/h 9.3 km/h 51 % 0 mm
11:17 17 °C 5.6 °C 1015.5 hPa NNE 3.7 km/h 8 km/h 47 % 0 mm
11:22 17.3 °C 5.8 °C 1015.5 hPa North 4.8 km/h 9.3 km/h 47 % 0 mm
11:27 17.4 °C 5.3 °C 1015.5 hPa ENE 2.6 km/h 5.6 km/h 45 % 0 mm
11:32 17.6 °C 6.7 °C 1015.5 hPa NNE 2.6 km/h 7.4 km/h 49 % 0 mm
11:37 17.3 °C 5.9 °C 1015.5 hPa ENE 2.9 km/h 7.4 km/h 47 % 0 mm
11:42 17.4 °C 6.9 °C 1015.8 hPa North 5.1 km/h 7.4 km/h 50 % 0 mm
11:47 17.1 °C 5 °C 1015.8 hPa NNE 5.6 km/h 7.4 km/h 45 % 0 mm
11:52 16.9 °C 6.7 °C 1015.5 hPa NNE 3.4 km/h 7.4 km/h 51 % 0 mm
11:57 16.8 °C 6.3 °C 1015.5 hPa ENE 4.2 km/h 6.4 km/h 50 % 0 mm
12:02 17.1 °C 7.1 °C 1015.5 hPa NE 1.9 km/h 3.2 km/h 52 % 0 mm
12:07 17.2 °C 6.4 °C 1015.5 hPa ENE 3.5 km/h 5.6 km/h 49 % 0 mm
12:08 17.3 °C 6.8 °C 1015.5 hPa ENE 1 km/h 5.6 km/h 50 % 0 mm
12:13 17.1 °C 6 °C 1015.5 hPa North 3.4 km/h 5.6 km/h 48 % 0 mm
12:18 17.2 °C 4.8 °C 1015.5 hPa NW 0.8 km/h 1.9 km/h 44 % 0 mm
12:24 17.3 °C 6.5 °C 1015.1 hPa NNE 3.7 km/h 9.3 km/h 49 % 0 mm
12:29 17.3 °C 5.6 °C 1015.1 hPa NNE 6.6 km/h 9.3 km/h 46 % 0 mm
12:34 17.4 °C 6.8 °C 1015.1 hPa NNW 2.6 km/h 9.3 km/h 50 % 0 mm
12:39 17.6 °C 7 °C 1015.1 hPa West 2.1 km/h 5.6 km/h 50 % 0 mm
12:44 17.8 °C 6 °C 1015.1 hPa WSW 0.2 km/h 1.9 km/h 46 % 0 mm
12:49 18 °C 5.9 °C 1015.1 hPa NNE 3.9 km/h 9.7 km/h 45 % 0 mm
12:54 18.2 °C 6.3 °C 1015.1 hPa North 5.5 km/h 9.3 km/h 46 % 0 mm
12:59 18.4 °C 6.6 °C 1015.1 hPa WNW 4 km/h 9.3 km/h 46 % 0 mm
13:04 18.2 °C 5.7 °C 1015.1 hPa WNW 0.2 km/h 1.9 km/h 44 % 0 mm
13:09 17.9 °C 6.4 °C 1015.1 hPa NW 1.8 km/h 3.7 km/h 47 % 0 mm
13:14 17.8 °C 5.7 °C 1014.8 hPa West 0.3 km/h 5.6 km/h 45 % 0 mm
13:19 17.6 °C 5.2 °C 1014.8 hPa WSW 2.4 km/h 7.4 km/h 44 % 0 mm
13:24 17.5 °C 5.4 °C 1014.8 hPa SW 6.1 km/h 11.1 km/h 45 % 0 mm
13:29 17.6 °C 6.7 °C 1014.8 hPa WSW 5.8 km/h 9.7 km/h 49 % 0 mm
13:34 17.9 °C 6.4 °C 1014.8 hPa NW 2.3 km/h 9.3 km/h 47 % 0 mm
13:39 17.8 °C 5.1 °C 1014.8 hPa West 1 km/h 1.9 km/h 43 % 0 mm
13:44 17.9 °C 5.8 °C 1014.8 hPa NW 1.9 km/h 3.7 km/h 45 % 0 mm
13:50 18.1 °C 6.3 °C 1014.8 hPa WNW 0.5 km/h 3.2 km/h 46 % 0 mm
13:55 17.9 °C 5.2 °C 1014.8 hPa WSW 1.4 km/h 11.1 km/h 43 % 0 mm
14:00 17.9 °C 6.1 °C 1014.8 hPa West 1.3 km/h 5.6 km/h 46 % 0 mm
14:05 18.1 °C 5.9 °C 1014.8 hPa North 2.3 km/h 7.4 km/h 45 % 0 mm
14:10 18.2 °C 7.3 °C 1014.8 hPa North 2.3 km/h 5.6 km/h 49 % 0 mm
14:15 18.5 °C 6.3 °C 1014.8 hPa NNW 3.9 km/h 7.4 km/h 45 % 0 mm
14:20 18.6 °C 6.7 °C 1014.8 hPa NNW 1.6 km/h 5.6 km/h 46 % 0 mm
14:25 18.7 °C 6.2 °C 1015.1 hPa NW 2.9 km/h 5.6 km/h 44 % 0 mm
14:30 18.8 °C 6.3 °C 1014.8 hPa NW 1.8 km/h 5.6 km/h 44 % 0 mm
14:35 19.1 °C 6.6 °C 1014.8 hPa NNW 3.7 km/h 5.6 km/h 44 % 0 mm
14:40 19.3 °C 6.1 °C 1015.1 hPa North 4.3 km/h 7.4 km/h 42 % 0 mm
14:45 19.2 °C 6.3 °C 1015.1 hPa North 1.1 km/h 3.7 km/h 43 % 0 mm
14:50 19.1 °C 5.9 °C 1015.1 hPa North 3.2 km/h 6.4 km/h 42 % 0 mm
14:55 19.2 °C 6.3 °C 1014.8 hPa North 4.7 km/h 9.7 km/h 43 % 0 mm
15:00 18.9 °C 4.7 °C 1014.8 hPa ENE 4 km/h 5.6 km/h 39 % 0 mm
15:05 18.6 °C 5.4 °C 1014.8 hPa NE 3.1 km/h 5.6 km/h 42 % 0 mm
15:10 18.3 °C 4.4 °C 1014.8 hPa ENE 0.3 km/h 3.7 km/h 40 % 0 mm
15:15 18.1 °C 5.3 °C 1014.8 hPa North 4.7 km/h 5.6 km/h 43 % 0 mm
15:20 17.9 °C 4.5 °C 1014.8 hPa ENE 4.8 km/h 6.4 km/h 41 % 0 mm
15:25 17.6 °C 4.5 °C 1014.8 hPa ENE 0.5 km/h 1.9 km/h 42 % 0 mm
15:31 17.3 °C 4.2 °C 1014.8 hPa ENE 1.6 km/h 8 km/h 42 % 0 mm
15:36 17.1 °C 5.4 °C 1014.8 hPa NE 1.6 km/h 6.4 km/h 46 % 0 mm
15:41 17 °C 5.6 °C 1014.8 hPa NE 1.6 km/h 6.4 km/h 47 % 0 mm
15:46 17 °C 5.3 °C 1014.8 hPa ENE 1.9 km/h 5.6 km/h 46 % 0 mm
15:51 17.1 °C 4.4 °C 1014.8 hPa ENE 3.9 km/h 5.6 km/h 43 % 0 mm
15:55 16.9 °C 5.2 °C 1014.8 hPa NE 1.1 km/h 7.4 km/h 46 % 0 mm
16:01 16.9 °C 6.2 °C 1014.8 hPa NE 2.4 km/h 7.4 km/h 49 % 0 mm
16:06 16.9 °C 4.6 °C 1014.8 hPa ENE 1.6 km/h 9.7 km/h 44 % 0 mm
16:11 17 °C 5.3 °C 1014.8 hPa Calm   6.4 km/h 46 % 0 mm
16:16 17 °C 4.3 °C 1014.8 hPa ENE 3.2 km/h 9.7 km/h 43 % 0 mm
16:21 17 °C 5.6 °C 1014.8 hPa Calm   1.6 km/h 47 % 0 mm
16:26 17 °C 4.9 °C 1014.8 hPa NNE 1.6 km/h 6.4 km/h 45 % 0 mm
16:31 17 °C 5.3 °C 1014.8 hPa NE 1.6 km/h 8 km/h 46 % 0 mm
16:36 16.9 °C 5.2 °C 1014.8 hPa ENE 1.6 km/h 6.4 km/h 46 % 0 mm
16:41 16.9 °C 5.6 °C 1014.8 hPa ENE 3.2 km/h 6.4 km/h 47 % 0 mm
16:46 16.8 °C 4.8 °C 1015.1 hPa ENE 0.3 km/h 5.6 km/h 45 % 0 mm
16:51 16.8 °C 5.1 °C 1014.8 hPa ENE 0.2 km/h 1.9 km/h 46 % 0 mm
16:56 16.8 °C 5.1 °C 1014.8 hPa ENE 1.6 km/h 5.6 km/h 46 % 0 mm
17:01 16.8 °C 5.1 °C 1014.8 hPa ENE 3.2 km/h 5.6 km/h 46 % 0 mm
17:06 16.8 °C 4.4 °C 1014.8 hPa NE 1.1 km/h 3.7 km/h 44 % 0 mm
17:11 16.7 °C 5.1 °C 1014.8 hPa ENE 2.3 km/h 5.6 km/h 46 % 0 mm
17:16 16.6 °C 4.2 °C 1014.8 hPa NE 2.3 km/h 5.6 km/h 44 % 0 mm
17:21 16.5 °C 4.5 °C 1014.8 hPa NE 0.5 km/h 3.7 km/h 45 % 0 mm
17:26 16.4 °C 4.4 °C 1014.8 hPa NE 3.7 km/h 5.6 km/h 45 % 0 mm
17:31 16.3 °C 5 °C 1014.8 hPa NE 0.2 km/h 5.6 km/h 47 % 0 mm
17:36 16.3 °C 4.6 °C 1014.8 hPa Calm   1.9 km/h 46 % 0 mm
17:41 16.2 °C 5.1 °C 1014.8 hPa Calm   1.6 km/h 48 % 0 mm
17:46 16.1 °C 5.1 °C 1014.8 hPa Calm     48 % 0 mm
17:51 16 °C 5 °C 1014.8 hPa NE 0.2 km/h 3.7 km/h 48 % 0 mm
17:56 15.9 °C 4 °C 1014.8 hPa NE 2.9 km/h 5.6 km/h 45 % 0 mm
17:58 15.9 °C 3.9 °C 1014.8 hPa Calm   1.9 km/h 45 % 0 mm
18:03 15.8 °C 4.2 °C 1014.8 hPa NE 0.2 km/h 1.9 km/h 46 % 0 mm
18:09 15.8 °C 4.2 °C 1014.8 hPa Calm     46 % 0 mm
18:14 15.8 °C 4.2 °C 1014.8 hPa NE 0.3 km/h 1.9 km/h 46 % 0 mm
18:19 15.7 °C 4.4 °C 1014.8 hPa NE 0.3 km/h 1.9 km/h 47 % 0 mm
18:24 15.6 °C 3.7 °C 1014.8 hPa Calm     45 % 0 mm
18:29 15.6 °C 4.6 °C 1014.4 hPa Calm     48 % 0 mm
18:34 15.4 °C 3.9 °C 1014.4 hPa Calm   1.9 km/h 46 % 0 mm
18:39 15.4 °C 3.8 °C 1014.8 hPa NE 1.1 km/h 3.2 km/h 46 % 0 mm
18:44 15.3 °C 3.8 °C 1014.8 hPa NE 1.6 km/h 3.7 km/h 46 % 0 mm
18:49 15.3 °C 3.7 °C 1014.8 hPa Calm   1.9 km/h 46 % 0 mm
18:54 15.3 °C 3.4 °C 1014.8 hPa NE 0.3 km/h 1.9 km/h 45 % 0 mm
18:59 15.2 °C 3.7 °C 1014.8 hPa NE 0.2 km/h 3.7 km/h 46 % 0 mm
19:04 15.2 °C 3.9 °C 1014.8 hPa NE 0.6 km/h 3.7 km/h 47 % 0 mm
19:09 15.1 °C 4.4 °C 1015.1 hPa Calm     49 % 0 mm
19:14 15.1 °C 4.7 °C 1015.1 hPa Calm     50 % 0 mm
19:19 14.9 °C 4 °C 1015.1 hPa NE 0.6 km/h 1.9 km/h 48 % 0 mm
19:24 14.8 °C 4.8 °C 1015.1 hPa Calm     51 % 0 mm
19:29 14.7 °C 4.4 °C 1015.1 hPa Calm     50 % 0 mm
19:34 14.7 °C 4.6 °C 1015.1 hPa Calm     51 % 0 mm
19:39 14.6 °C 4.6 °C 1015.1 hPa Calm   1.9 km/h 51 % 0 mm
19:44 14.5 °C 4.2 °C 1015.1 hPa Calm     50 % 0 mm
19:49 14.4 °C 4.9 °C 1015.1 hPa Calm     53 % 0 mm
19:54 14.3 °C 5.6 °C 1015.1 hPa Calm     56 % 0 mm
19:59 14.2 °C 6 °C 1015.5 hPa Calm   1.6 km/h 58 % 0 mm
20:00 14.2 °C 6 °C 1015.5 hPa Calm   1.9 km/h 58 % 0 mm
20:05 14 °C 6.1 °C 1015.5 hPa ENE 0.3 km/h 1.9 km/h 59 % 0 mm
20:10 13.8 °C 5.9 °C 1015.5 hPa East 1.9 km/h 5.6 km/h 59 % 0 mm
20:15 13.7 °C 5.8 °C 1015.5 hPa Calm     59 % 0 mm
20:20 13.6 °C 5.9 °C 1015.5 hPa East 0.6 km/h 1.6 km/h 60 % 0 mm
20:25 13.5 °C 6.1 °C 1015.5 hPa East 1 km/h 1.9 km/h 61 % 0 mm
20:30 13.3 °C 6.2 °C 1015.5 hPa East 0.3 km/h 1.9 km/h 62 % 0 mm
20:35 13.2 °C 6.1 °C 1015.5 hPa ESE 0.8 km/h 5.6 km/h 62 % 0 mm
20:40 13 °C 5.9 °C 1015.8 hPa Calm     62 % 0 mm
20:45 12.9 °C 6.1 °C 1015.8 hPa Calm   3.7 km/h 63 % 0 mm
20:50 12.9 °C 6 °C 1015.8 hPa Calm     63 % 0 mm
20:55 12.8 °C 6.2 °C 1015.8 hPa SE 1.4 km/h 3.7 km/h 64 % 0 mm
21:01 12.7 °C 6.1 °C 1015.8 hPa SE 1.1 km/h 1.9 km/h 64 % 0 mm
21:06 12.7 °C 6.3 °C 1015.8 hPa SSE 1 km/h 3.2 km/h 65 % 0 mm
21:11 12.6 °C 6.2 °C 1016.1 hPa Calm   3.2 km/h 65 % 0 mm
21:16 12.5 °C 6.1 °C 1016.1 hPa SSE 1 km/h 3.7 km/h 65 % 0 mm
21:21 12.4 °C 6.3 °C 1016.1 hPa South 1 km/h 3.7 km/h 66 % 0 mm
21:26 12.3 °C 6.2 °C 1016.5 hPa South 0.5 km/h 3.7 km/h 66 % 0 mm
21:31 12.3 °C 6.3 °C 1016.1 hPa Calm   3.2 km/h 67 % 0 mm
21:36 12.2 °C 6.2 °C 1016.5 hPa Calm   1.9 km/h 67 % 0 mm
21:41 12.1 °C 5.9 °C 1016.5 hPa Calm   1.6 km/h 66 % 0 mm
21:46 12 °C 6.1 °C 1016.5 hPa SSW 1.1 km/h 1.9 km/h 67 % 0 mm
21:51 11.9 °C 6.2 °C 1016.5 hPa SSW 1.6 km/h 5.6 km/h 68 % 0 mm
21:56 11.8 °C 6.3 °C 1016.5 hPa SW 2.7 km/h 4.8 km/h 69 % 0 mm
22:01 11.8 °C 6.3 °C 1016.5 hPa SW 0.8 km/h 5.6 km/h 69 % 0 mm
22:06 11.7 °C 6.2 °C 1016.5 hPa Calm   1.9 km/h 69 % 0 mm
22:11 11.6 °C 6.3 °C 1016.5 hPa SW 0.8 km/h 3.7 km/h 70 % 0 mm
22:16 11.6 °C 6.5 °C 1016.5 hPa West 5.8 km/h 7.4 km/h 71 % 0 mm
22:21 11.4 °C 6.4 °C 1016.5 hPa West 1.4 km/h 3.7 km/h 71 % 0 mm
22:26 11.4 °C 6.4 °C 1016.5 hPa West 0.2 km/h 3.7 km/h 71 % 0 mm
22:31 11.4 °C 6.3 °C 1016.5 hPa Calm   1.9 km/h 71 % 0 mm
22:36 11.3 °C 6.4 °C 1016.5 hPa West 2.1 km/h 3.7 km/h 72 % 0 mm
22:41 11.3 °C 6.4 °C 1016.5 hPa West 1.9 km/h 4.8 km/h 72 % 0 mm
22:46 11.3 °C 6.7 °C 1016.5 hPa Calm   1.6 km/h 73 % 0 mm
22:51 11.3 °C 6.6 °C 1016.5 hPa Calm     73 % 0 mm
22:56 11.3 °C 6.6 °C 1016.5 hPa Calm     73 % 0 mm
23:01 11.3 °C 6.6 °C 1016.5 hPa WNW 1.8 km/h 3.2 km/h 73 % 0 mm
23:06 11.3 °C 6 °C 1016.5 hPa NW 0.2 km/h 3.7 km/h 70 % 0 mm
23:11 11.3 °C 5.8 °C 1016.5 hPa NNE 0.5 km/h 4.8 km/h 69 % 0 mm
23:16 11.3 °C 5.4 °C 1016.5 hPa ENE 4.8 km/h 9.3 km/h 67 % 0 mm
23:21 11.3 °C 5.2 °C 1016.5 hPa North 5.8 km/h 9.7 km/h 66 % 0 mm
23:26 11.3 °C 5.2 °C 1016.5 hPa NNE 4.7 km/h 8 km/h 66 % 0 mm
23:31 11.4 °C 5.3 °C 1016.5 hPa NNE 4 km/h 8 km/h 66 % 0 mm
23:36 11.4 °C 5.3 °C 1016.5 hPa NNE 7.1 km/h 13 km/h 66 % 0 mm
23:41 11.4 °C 4.7 °C 1016.5 hPa North 5.1 km/h 11.1 km/h 63 % 0 mm
23:46 11.4 °C 4.7 °C 1016.5 hPa NNE 6 km/h 7.4 km/h 63 % 0 mm
23:51 11.4 °C 4.9 °C 1016.1 hPa NNE 3.9 km/h 5.6 km/h 64 % 0 mm
23:57 11.4 °C 5.1 °C 1016.1 hPa North 3.7 km/h 7.4 km/h 65 % 0 mm
Crab Meadow Weather
Compliments of Weather Underground - 3 mb

Script developed by  Jim McMurry - jmcmurry@mwt.net Adapted for the template by  Wim van der Kuil - Leuven-Template.eu

Astronomy: It takes 16 million horsepower to break loose from the Earth's gravitational pull.